sensor_id;sensor_type;location;lat;lon;timestamp;temperature;humidity
10566;DHT22;5331;48.148;16.326;2023-08-31T00:01:19;17.20;1.00
10566;DHT22;5331;48.148;16.326;2023-08-31T00:03:46;17.10;1.00
10566;DHT22;5331;48.148;16.326;2023-08-31T00:06:12;17.10;1.00
10566;DHT22;5331;48.148;16.326;2023-08-31T00:08:39;17.10;1.00
10566;DHT22;5331;48.148;16.326;2023-08-31T00:11:06;17.10;1.00
10566;DHT22;5331;48.148;16.326;2023-08-31T00:13:35;17.10;1.00
10566;DHT22;5331;48.148;16.326;2023-08-31T00:16:02;17.10;1.00
10566;DHT22;5331;48.148;16.326;2023-08-31T00:18:30;17.10;1.00
10566;DHT22;5331;48.148;16.326;2023-08-31T00:20:57;17.10;1.00
10566;DHT22;5331;48.148;16.326;2023-08-31T00:23:24;17.10;1.00
10566;DHT22;5331;48.148;16.326;2023-08-31T00:25:52;17.10;1.00
10566;DHT22;5331;48.148;16.326;2023-08-31T00:28:19;17.10;1.00
10566;DHT22;5331;48.148;16.326;2023-08-31T00:30:48;17.10;1.00
10566;DHT22;5331;48.148;16.326;2023-08-31T00:33:16;17.10;1.00
10566;DHT22;5331;48.148;16.326;2023-08-31T00:35:43;17.10;1.00
10566;DHT22;5331;48.148;16.326;2023-08-31T00:38:11;17.10;1.00
10566;DHT22;5331;48.148;16.326;2023-08-31T00:40:41;17.10;1.00
10566;DHT22;5331;48.148;16.326;2023-08-31T00:43:10;17.10;1.00
10566;DHT22;5331;48.148;16.326;2023-08-31T00:45:37;17.10;1.00
10566;DHT22;5331;48.148;16.326;2023-08-31T00:48:06;17.10;1.00
10566;DHT22;5331;48.148;16.326;2023-08-31T00:50:34;17.10;1.00
10566;DHT22;5331;48.148;16.326;2023-08-31T00:53:01;17.00;1.00
10566;DHT22;5331;48.148;16.326;2023-08-31T00:55:28;17.00;1.00
10566;DHT22;5331;48.148;16.326;2023-08-31T00:57:55;17.00;1.00
10566;DHT22;5331;48.148;16.326;2023-08-31T01:00:27;17.00;1.00
10566;DHT22;5331;48.148;16.326;2023-08-31T01:03:03;16.90;1.00
10566;DHT22;5331;48.148;16.326;2023-08-31T01:05:39;16.90;1.00
10566;DHT22;5331;48.148;16.326;2023-08-31T01:08:19;16.90;1.00
10566;DHT22;5331;48.148;16.326;2023-08-31T01:10:56;16.90;1.00
10566;DHT22;5331;48.148;16.326;2023-08-31T01:13:25;17.00;1.00
10566;DHT22;5331;48.148;16.326;2023-08-31T01:16:00;17.00;1.00
10566;DHT22;5331;48.148;16.326;2023-08-31T01:18:30;17.00;1.00
10566;DHT22;5331;48.148;16.326;2023-08-31T01:21:08;17.00;1.00
10566;DHT22;5331;48.148;16.326;2023-08-31T01:23:50;17.00;1.00
10566;DHT22;5331;48.148;16.326;2023-08-31T01:26:19;16.90;1.00
10566;DHT22;5331;48.148;16.326;2023-08-31T01:28:47;16.80;1.00
10566;DHT22;5331;48.148;16.326;2023-08-31T01:31:14;16.80;1.00
10566;DHT22;5331;48.148;16.326;2023-08-31T01:33:41;16.70;1.00
10566;DHT22;5331;48.148;16.326;2023-08-31T01:36:14;16.70;1.00
10566;DHT22;5331;48.148;16.326;2023-08-31T01:38:48;16.60;1.00
10566;DHT22;5331;48.148;16.326;2023-08-31T01:41:17;16.50;1.00
10566;DHT22;5331;48.148;16.326;2023-08-31T01:43:47;16.50;1.00
10566;DHT22;5331;48.148;16.326;2023-08-31T01:46:15;16.40;1.00
10566;DHT22;5331;48.148;16.326;2023-08-31T01:48:42;16.40;1.00
10566;DHT22;5331;48.148;16.326;2023-08-31T01:51:09;16.30;1.00
10566;DHT22;5331;48.148;16.326;2023-08-31T01:53:37;16.30;1.00
10566;DHT22;5331;48.148;16.326;2023-08-31T01:56:05;16.30;1.00
10566;DHT22;5331;48.148;16.326;2023-08-31T01:58:32;16.30;1.00
10566;DHT22;5331;48.148;16.326;2023-08-31T02:00:59;16.20;1.00
10566;DHT22;5331;48.148;16.326;2023-08-31T02:03:26;16.20;1.00
10566;DHT22;5331;48.148;16.326;2023-08-31T02:05:53;16.10;1.00
10566;DHT22;5331;48.148;16.326;2023-08-31T02:08:20;16.10;1.00
10566;DHT22;5331;48.148;16.326;2023-08-31T02:10:46;16.00;1.00
10566;DHT22;5331;48.148;16.326;2023-08-31T02:13:15;16.00;1.00
10566;DHT22;5331;48.148;16.326;2023-08-31T02:15:42;15.90;1.00
10566;DHT22;5331;48.148;16.326;2023-08-31T02:18:09;15.90;1.00
10566;DHT22;5331;48.148;16.326;2023-08-31T02:20:36;15.80;1.00
10566;DHT22;5331;48.148;16.326;2023-08-31T02:23:03;15.80;1.00
10566;DHT22;5331;48.148;16.326;2023-08-31T02:25:30;15.80;1.00
10566;DHT22;5331;48.148;16.326;2023-08-31T02:27:58;15.70;1.00
10566;DHT22;5331;48.148;16.326;2023-08-31T02:30:26;15.70;1.00
10566;DHT22;5331;48.148;16.326;2023-08-31T02:32:53;15.70;1.00
10566;DHT22;5331;48.148;16.326;2023-08-31T02:35:20;15.70;1.00
10566;DHT22;5331;48.148;16.326;2023-08-31T02:37:46;15.70;1.00
10566;DHT22;5331;48.148;16.326;2023-08-31T02:40:13;15.70;1.00
10566;DHT22;5331;48.148;16.326;2023-08-31T02:42:41;15.70;1.00
10566;DHT22;5331;48.148;16.326;2023-08-31T02:45:08;15.70;1.00
10566;DHT22;5331;48.148;16.326;2023-08-31T02:47:37;15.70;1.00
10566;DHT22;5331;48.148;16.326;2023-08-31T02:50:05;15.60;1.00
10566;DHT22;5331;48.148;16.326;2023-08-31T02:52:32;15.60;1.00
10566;DHT22;5331;48.148;16.326;2023-08-31T02:54:59;15.60;1.00
10566;DHT22;5331;48.148;16.326;2023-08-31T02:57:26;15.50;1.00
10566;DHT22;5331;48.148;16.326;2023-08-31T02:59:53;15.60;1.00
10566;DHT22;5331;48.148;16.326;2023-08-31T03:02:19;15.60;1.00
10566;DHT22;5331;48.148;16.326;2023-08-31T03:04:48;15.60;1.00
10566;DHT22;5331;48.148;16.326;2023-08-31T03:07:16;15.60;1.00
10566;DHT22;5331;48.148;16.326;2023-08-31T03:09:42;15.60;1.00
10566;DHT22;5331;48.148;16.326;2023-08-31T03:12:08;15.60;1.00
10566;DHT22;5331;48.148;16.326;2023-08-31T03:14:35;15.60;1.00
10566;DHT22;5331;48.148;16.326;2023-08-31T03:17:02;15.60;1.00
10566;DHT22;5331;48.148;16.326;2023-08-31T03:19:29;15.60;1.00
10566;DHT22;5331;48.148;16.326;2023-08-31T03:21:57;15.60;1.00
10566;DHT22;5331;48.148;16.326;2023-08-31T03:24:24;15.50;1.00
10566;DHT22;5331;48.148;16.326;2023-08-31T03:26:51;15.50;1.00
10566;DHT22;5331;48.148;16.326;2023-08-31T03:29:18;15.60;1.00
10566;DHT22;5331;48.148;16.326;2023-08-31T03:31:46;15.50;1.00
10566;DHT22;5331;48.148;16.326;2023-08-31T03:34:13;15.60;1.00
10566;DHT22;5331;48.148;16.326;2023-08-31T03:36:40;15.50;1.00
10566;DHT22;5331;48.148;16.326;2023-08-31T03:39:09;15.50;1.00
10566;DHT22;5331;48.148;16.326;2023-08-31T03:41:36;15.50;1.00
10566;DHT22;5331;48.148;16.326;2023-08-31T03:44:03;15.50;1.00
10566;DHT22;5331;48.148;16.326;2023-08-31T03:46:30;15.50;1.00
10566;DHT22;5331;48.148;16.326;2023-08-31T03:48:57;15.50;1.00
10566;DHT22;5331;48.148;16.326;2023-08-31T03:51:24;15.50;1.00
10566;DHT22;5331;48.148;16.326;2023-08-31T03:53:51;15.50;1.00
10566;DHT22;5331;48.148;16.326;2023-08-31T03:56:21;15.40;1.00
10566;DHT22;5331;48.148;16.326;2023-08-31T03:58:48;15.40;1.00
10566;DHT22;5331;48.148;16.326;2023-08-31T04:01:15;15.30;1.00
10566;DHT22;5331;48.148;16.326;2023-08-31T04:03:43;15.30;1.00
10566;DHT22;5331;48.148;16.326;2023-08-31T04:06:10;15.30;1.00
10566;DHT22;5331;48.148;16.326;2023-08-31T04:08:37;15.20;1.00
10566;DHT22;5331;48.148;16.326;2023-08-31T04:11:04;15.30;1.00
10566;DHT22;5331;48.148;16.326;2023-08-31T04:13:32;15.20;1.00
10566;DHT22;5331;48.148;16.326;2023-08-31T04:15:59;15.30;1.00
10566;DHT22;5331;48.148;16.326;2023-08-31T04:18:26;15.20;1.00
10566;DHT22;5331;48.148;16.326;2023-08-31T04:20:54;15.20;1.00
10566;DHT22;5331;48.148;16.326;2023-08-31T04:23:21;15.30;1.00
10566;DHT22;5331;48.148;16.326;2023-08-31T04:25:48;15.20;1.00
10566;DHT22;5331;48.148;16.326;2023-08-31T04:28:17;15.20;1.00
10566;DHT22;5331;48.148;16.326;2023-08-31T04:30:45;15.30;1.00
10566;DHT22;5331;48.148;16.326;2023-08-31T04:33:12;15.30;1.00
10566;DHT22;5331;48.148;16.326;2023-08-31T04:35:38;15.30;1.00
10566;DHT22;5331;48.148;16.326;2023-08-31T04:38:05;15.30;1.00
10566;DHT22;5331;48.148;16.326;2023-08-31T04:40:32;15.30;1.00
10566;DHT22;5331;48.148;16.326;2023-08-31T04:42:59;15.30;1.00
10566;DHT22;5331;48.148;16.326;2023-08-31T04:45:26;15.30;1.00
10566;DHT22;5331;48.148;16.326;2023-08-31T04:47:54;15.30;1.00
10566;DHT22;5331;48.148;16.326;2023-08-31T04:50:21;15.30;1.00
10566;DHT22;5331;48.148;16.326;2023-08-31T04:52:48;15.30;1.00
10566;DHT22;5331;48.148;16.326;2023-08-31T04:55:15;15.40;1.00
10566;DHT22;5331;48.148;16.326;2023-08-31T04:57:42;15.40;1.00
10566;DHT22;5331;48.148;16.326;2023-08-31T05:00:09;15.40;1.00
10566;DHT22;5331;48.148;16.326;2023-08-31T05:02:37;15.50;1.00
10566;DHT22;5331;48.148;16.326;2023-08-31T05:05:07;15.60;1.00
10566;DHT22;5331;48.148;16.326;2023-08-31T05:07:34;15.60;1.00
10566;DHT22;5331;48.148;16.326;2023-08-31T05:10:01;15.70;1.00
10566;DHT22;5331;48.148;16.326;2023-08-31T05:12:28;15.80;1.00
10566;DHT22;5331;48.148;16.326;2023-08-31T05:14:55;15.80;1.00
10566;DHT22;5331;48.148;16.326;2023-08-31T05:17:22;15.90;1.00
10566;DHT22;5331;48.148;16.326;2023-08-31T05:19:49;16.00;1.00
10566;DHT22;5331;48.148;16.326;2023-08-31T05:22:18;16.00;1.00
10566;DHT22;5331;48.148;16.326;2023-08-31T05:24:44;16.10;1.00
10566;DHT22;5331;48.148;16.326;2023-08-31T05:27:11;16.20;1.00
10566;DHT22;5331;48.148;16.326;2023-08-31T05:29:38;16.20;1.00
10566;DHT22;5331;48.148;16.326;2023-08-31T05:32:05;16.30;1.00
10566;DHT22;5331;48.148;16.326;2023-08-31T05:34:32;16.50;1.00
10566;DHT22;5331;48.148;16.326;2023-08-31T05:37:03;16.60;1.00
10566;DHT22;5331;48.148;16.326;2023-08-31T05:39:32;16.70;1.00
10566;DHT22;5331;48.148;16.326;2023-08-31T05:41:59;16.90;1.00
10566;DHT22;5331;48.148;16.326;2023-08-31T05:44:26;17.00;1.00
10566;DHT22;5331;48.148;16.326;2023-08-31T05:46:53;17.20;1.00
10566;DHT22;5331;48.148;16.326;2023-08-31T05:49:20;17.30;1.00
10566;DHT22;5331;48.148;16.326;2023-08-31T05:51:47;17.40;1.00
10566;DHT22;5331;48.148;16.326;2023-08-31T05:54:14;17.60;1.00
10566;DHT22;5331;48.148;16.326;2023-08-31T05:56:42;17.70;1.00
10566;DHT22;5331;48.148;16.326;2023-08-31T05:59:09;17.70;1.00
10566;DHT22;5331;48.148;16.326;2023-08-31T06:01:36;17.70;1.00
10566;DHT22;5331;48.148;16.326;2023-08-31T06:04:03;18.00;1.00
10566;DHT22;5331;48.148;16.326;2023-08-31T06:06:31;18.40;1.00
10566;DHT22;5331;48.148;16.326;2023-08-31T06:08:58;18.40;1.00
10566;DHT22;5331;48.148;16.326;2023-08-31T06:11:25;18.50;1.00
10566;DHT22;5331;48.148;16.326;2023-08-31T06:13:53;18.90;1.00
10566;DHT22;5331;48.148;16.326;2023-08-31T06:16:20;19.20;1.00
10566;DHT22;5331;48.148;16.326;2023-08-31T06:18:48;19.50;1.00
10566;DHT22;5331;48.148;16.326;2023-08-31T06:21:15;19.40;1.00
10566;DHT22;5331;48.148;16.326;2023-08-31T06:23:42;19.40;1.00
10566;DHT22;5331;48.148;16.326;2023-08-31T06:26:09;19.30;1.00
10566;DHT22;5331;48.148;16.326;2023-08-31T06:28:36;19.20;1.00
10566;DHT22;5331;48.148;16.326;2023-08-31T06:31:04;19.10;1.00
10566;DHT22;5331;48.148;16.326;2023-08-31T06:33:31;19.10;1.00
10566;DHT22;5331;48.148;16.326;2023-08-31T06:35:58;19.10;1.00
10566;DHT22;5331;48.148;16.326;2023-08-31T06:38:24;19.10;1.00
10566;DHT22;5331;48.148;16.326;2023-08-31T06:40:51;19.10;1.00
10566;DHT22;5331;48.148;16.326;2023-08-31T06:43:24;19.10;1.00
10566;DHT22;5331;48.148;16.326;2023-08-31T06:45:52;19.10;1.00
10566;DHT22;5331;48.148;16.326;2023-08-31T06:48:20;19.00;1.00
10566;DHT22;5331;48.148;16.326;2023-08-31T06:50:47;19.10;1.00
10566;DHT22;5331;48.148;16.326;2023-08-31T06:53:14;19.20;1.00
10566;DHT22;5331;48.148;16.326;2023-08-31T06:55:41;19.30;1.00
10566;DHT22;5331;48.148;16.326;2023-08-31T06:58:07;19.70;1.00
10566;DHT22;5331;48.148;16.326;2023-08-31T07:00:34;20.30;1.00
10566;DHT22;5331;48.148;16.326;2023-08-31T07:03:01;21.00;1.00
10566;DHT22;5331;48.148;16.326;2023-08-31T07:05:33;22.00;1.00
10566;DHT22;5331;48.148;16.326;2023-08-31T07:08:00;22.00;1.00
10566;DHT22;5331;48.148;16.326;2023-08-31T07:10:28;22.40;1.00
10566;DHT22;5331;48.148;16.326;2023-08-31T07:12:55;22.90;1.00
10566;DHT22;5331;48.148;16.326;2023-08-31T07:15:21;23.40;1.00
10566;DHT22;5331;48.148;16.326;2023-08-31T07:17:48;23.40;1.00
10566;DHT22;5331;48.148;16.326;2023-08-31T07:20:15;23.50;1.00
10566;DHT22;5331;48.148;16.326;2023-08-31T07:22:44;23.50;1.00
10566;DHT22;5331;48.148;16.326;2023-08-31T07:25:10;23.30;1.00
10566;DHT22;5331;48.148;16.326;2023-08-31T07:27:38;23.10;1.00
10566;DHT22;5331;48.148;16.326;2023-08-31T07:30:05;22.70;1.00
10566;DHT22;5331;48.148;16.326;2023-08-31T07:32:32;22.90;1.00
10566;DHT22;5331;48.148;16.326;2023-08-31T07:34:59;23.10;1.00
10566;DHT22;5331;48.148;16.326;2023-08-31T07:37:26;23.50;1.00
10566;DHT22;5331;48.148;16.326;2023-08-31T07:39:54;23.90;1.00
10566;DHT22;5331;48.148;16.326;2023-08-31T07:42:21;23.80;1.00
10566;DHT22;5331;48.148;16.326;2023-08-31T07:44:48;23.90;1.00
10566;DHT22;5331;48.148;16.326;2023-08-31T07:47:15;24.10;1.00
10566;DHT22;5331;48.148;16.326;2023-08-31T07:49:42;24.20;1.00
10566;DHT22;5331;48.148;16.326;2023-08-31T07:52:09;24.40;1.00
10566;DHT22;5331;48.148;16.326;2023-08-31T07:54:36;24.50;1.00
10566;DHT22;5331;48.148;16.326;2023-08-31T07:57:05;24.50;1.00
10566;DHT22;5331;48.148;16.326;2023-08-31T07:59:31;24.80;1.00
10566;DHT22;5331;48.148;16.326;2023-08-31T08:01:58;24.70;1.00
10566;DHT22;5331;48.148;16.326;2023-08-31T08:04:25;24.70;1.00
10566;DHT22;5331;48.148;16.326;2023-08-31T08:06:52;24.70;1.00
10566;DHT22;5331;48.148;16.326;2023-08-31T08:09:19;24.70;1.00
10566;DHT22;5331;48.148;16.326;2023-08-31T08:11:47;24.90;1.00
10566;DHT22;5331;48.148;16.326;2023-08-31T08:14:16;25.00;1.00
10566;DHT22;5331;48.148;16.326;2023-08-31T08:16:43;24.90;1.00
10566;DHT22;5331;48.148;16.326;2023-08-31T08:19:09;24.90;1.00
10566;DHT22;5331;48.148;16.326;2023-08-31T08:21:36;24.70;1.00
10566;DHT22;5331;48.148;16.326;2023-08-31T08:24:04;24.50;1.00
10566;DHT22;5331;48.148;16.326;2023-08-31T08:26:30;24.90;1.00
10566;DHT22;5331;48.148;16.326;2023-08-31T08:28:57;25.00;1.00
10566;DHT22;5331;48.148;16.326;2023-08-31T08:31:25;24.90;1.00
10566;DHT22;5331;48.148;16.326;2023-08-31T08:33:52;24.90;1.00
10566;DHT22;5331;48.148;16.326;2023-08-31T08:36:19;25.00;1.00
10566;DHT22;5331;48.148;16.326;2023-08-31T08:38:46;25.10;1.00
10566;DHT22;5331;48.148;16.326;2023-08-31T08:41:14;25.20;1.00
10566;DHT22;5331;48.148;16.326;2023-08-31T08:43:46;24.60;1.00
10566;DHT22;5331;48.148;16.326;2023-08-31T08:46:13;24.10;1.00
10566;DHT22;5331;48.148;16.326;2023-08-31T08:48:42;24.10;1.00
10566;DHT22;5331;48.148;16.326;2023-08-31T08:51:11;24.10;1.00
10566;DHT22;5331;48.148;16.326;2023-08-31T08:53:41;24.10;1.00
10566;DHT22;5331;48.148;16.326;2023-08-31T08:56:09;24.10;1.00
10566;DHT22;5331;48.148;16.326;2023-08-31T08:58:36;24.10;1.00
10566;DHT22;5331;48.148;16.326;2023-08-31T09:01:04;23.80;1.00
10566;DHT22;5331;48.148;16.326;2023-08-31T09:03:32;23.80;1.00
10566;DHT22;5331;48.148;16.326;2023-08-31T09:06:00;23.90;1.00
10566;DHT22;5331;48.148;16.326;2023-08-31T09:08:28;24.10;1.00
10566;DHT22;5331;48.148;16.326;2023-08-31T09:10:56;24.40;1.00
10566;DHT22;5331;48.148;16.326;2023-08-31T09:13:27;24.30;1.00
10566;DHT22;5331;48.148;16.326;2023-08-31T09:15:55;24.50;1.00
10566;DHT22;5331;48.148;16.326;2023-08-31T09:18:23;24.50;1.00
10566;DHT22;5331;48.148;16.326;2023-08-31T09:20:51;24.60;1.00
10566;DHT22;5331;48.148;16.326;2023-08-31T09:23:20;24.50;1.00
10566;DHT22;5331;48.148;16.326;2023-08-31T09:25:48;24.40;1.00
10566;DHT22;5331;48.148;16.326;2023-08-31T09:28:16;24.30;1.00
10566;DHT22;5331;48.148;16.326;2023-08-31T09:30:44;24.10;1.00
10566;DHT22;5331;48.148;16.326;2023-08-31T09:33:15;23.40;1.00
10566;DHT22;5331;48.148;16.326;2023-08-31T09:35:51;22.80;1.00
10566;DHT22;5331;48.148;16.326;2023-08-31T09:38:20;22.50;1.00
10566;DHT22;5331;48.148;16.326;2023-08-31T09:40:47;22.20;1.00
10566;DHT22;5331;48.148;16.326;2023-08-31T09:43:19;22.10;1.00
10566;DHT22;5331;48.148;16.326;2023-08-31T09:45:46;22.00;1.00
10566;DHT22;5331;48.148;16.326;2023-08-31T09:48:15;22.00;1.00
10566;DHT22;5331;48.148;16.326;2023-08-31T09:50:43;22.00;1.00
10566;DHT22;5331;48.148;16.326;2023-08-31T09:53:11;22.10;1.00
10566;DHT22;5331;48.148;16.326;2023-08-31T09:55:40;21.90;1.00
10566;DHT22;5331;48.148;16.326;2023-08-31T09:58:08;21.80;1.00
10566;DHT22;5331;48.148;16.326;2023-08-31T10:00:36;22.40;1.00
10566;DHT22;5331;48.148;16.326;2023-08-31T10:03:04;22.50;1.00
10566;DHT22;5331;48.148;16.326;2023-08-31T10:05:32;22.70;1.00
10566;DHT22;5331;48.148;16.326;2023-08-31T10:08:00;22.60;1.00
10566;DHT22;5331;48.148;16.326;2023-08-31T10:10:28;22.50;1.00
10566;DHT22;5331;48.148;16.326;2023-08-31T10:12:56;22.40;1.00
10566;DHT22;5331;48.148;16.326;2023-08-31T10:15:29;22.20;1.00
10566;DHT22;5331;48.148;16.326;2023-08-31T10:17:58;22.20;1.00
10566;DHT22;5331;48.148;16.326;2023-08-31T10:20:26;22.20;1.00
10566;DHT22;5331;48.148;16.326;2023-08-31T10:22:57;22.30;1.00
10566;DHT22;5331;48.148;16.326;2023-08-31T10:25:24;22.80;1.00
10566;DHT22;5331;48.148;16.326;2023-08-31T10:27:52;22.80;1.00
10566;DHT22;5331;48.148;16.326;2023-08-31T10:30:27;22.80;1.00
10566;DHT22;5331;48.148;16.326;2023-08-31T10:33:22;22.70;1.00
10566;DHT22;5331;48.148;16.326;2023-08-31T10:35:51;22.50;1.00
10566;DHT22;5331;48.148;16.326;2023-08-31T10:38:28;22.70;1.00
10566;DHT22;5331;48.148;16.326;2023-08-31T10:41:21;23.00;1.00
10566;DHT22;5331;48.148;16.326;2023-08-31T10:43:50;23.40;1.00
10566;DHT22;5331;48.148;16.326;2023-08-31T10:46:24;23.80;1.00
10566;DHT22;5331;48.148;16.326;2023-08-31T10:48:53;23.90;1.00
10566;DHT22;5331;48.148;16.326;2023-08-31T10:51:25;24.00;1.00
10566;DHT22;5331;48.148;16.326;2023-08-31T10:53:52;24.30;1.00
10566;DHT22;5331;48.148;16.326;2023-08-31T10:56:19;24.60;1.00
10566;DHT22;5331;48.148;16.326;2023-08-31T10:58:57;24.80;1.00
10566;DHT22;5331;48.148;16.326;2023-08-31T11:01:54;24.60;1.00
10566;DHT22;5331;48.148;16.326;2023-08-31T11:14:52;24.30;1.00
10566;DHT22;5331;48.148;16.326;2023-08-31T11:17:20;24.10;1.00
10566;DHT22;5331;48.148;16.326;2023-08-31T11:19:47;24.10;1.00
10566;DHT22;5331;48.148;16.326;2023-08-31T11:22:14;24.40;1.00
10566;DHT22;5331;48.148;16.326;2023-08-31T11:24:41;24.50;1.00
10566;DHT22;5331;48.148;16.326;2023-08-31T11:27:08;24.40;1.00
10566;DHT22;5331;48.148;16.326;2023-08-31T11:29:37;24.40;1.00
10566;DHT22;5331;48.148;16.326;2023-08-31T11:32:06;24.50;1.00
10566;DHT22;5331;48.148;16.326;2023-08-31T11:34:33;24.60;1.00
10566;DHT22;5331;48.148;16.326;2023-08-31T11:37:02;24.20;1.00
10566;DHT22;5331;48.148;16.326;2023-08-31T11:39:29;23.90;1.00
10566;DHT22;5331;48.148;16.326;2023-08-31T11:41:56;23.60;1.00
10566;DHT22;5331;48.148;16.326;2023-08-31T11:44:23;23.60;1.00
10566;DHT22;5331;48.148;16.326;2023-08-31T11:46:51;23.80;1.00
10566;DHT22;5331;48.148;16.326;2023-08-31T11:49:20;23.90;1.00
10566;DHT22;5331;48.148;16.326;2023-08-31T11:51:48;24.10;1.00
10566;DHT22;5331;48.148;16.326;2023-08-31T11:54:16;24.10;1.00
10566;DHT22;5331;48.148;16.326;2023-08-31T11:56:43;24.20;1.00
10566;DHT22;5331;48.148;16.326;2023-08-31T11:59:14;24.30;1.00
10566;DHT22;5331;48.148;16.326;2023-08-31T12:01:42;24.40;1.00
10566;DHT22;5331;48.148;16.326;2023-08-31T12:04:10;24.50;1.00
10566;DHT22;5331;48.148;16.326;2023-08-31T12:06:40;24.60;1.00
10566;DHT22;5331;48.148;16.326;2023-08-31T12:09:08;24.70;1.00
10566;DHT22;5331;48.148;16.326;2023-08-31T12:11:35;24.80;1.00
10566;DHT22;5331;48.148;16.326;2023-08-31T12:14:03;24.90;1.00
10566;DHT22;5331;48.148;16.326;2023-08-31T12:16:34;24.90;1.00
10566;DHT22;5331;48.148;16.326;2023-08-31T12:19:04;24.90;1.00
10566;DHT22;5331;48.148;16.326;2023-08-31T12:21:31;24.90;1.00
10566;DHT22;5331;48.148;16.326;2023-08-31T12:24:00;25.00;1.00
10566;DHT22;5331;48.148;16.326;2023-08-31T12:26:29;24.90;1.00
10566;DHT22;5331;48.148;16.326;2023-08-31T12:28:55;24.90;1.00
10566;DHT22;5331;48.148;16.326;2023-08-31T12:31:23;25.00;1.00
10566;DHT22;5331;48.148;16.326;2023-08-31T12:33:50;25.20;1.00
10566;DHT22;5331;48.148;16.326;2023-08-31T12:36:17;25.20;1.00
10566;DHT22;5331;48.148;16.326;2023-08-31T12:38:43;24.90;1.00
10566;DHT22;5331;48.148;16.326;2023-08-31T12:41:12;24.90;1.00
10566;DHT22;5331;48.148;16.326;2023-08-31T12:43:39;24.90;1.00
10566;DHT22;5331;48.148;16.326;2023-08-31T12:46:05;25.00;1.00
10566;DHT22;5331;48.148;16.326;2023-08-31T12:48:34;25.10;1.00
10566;DHT22;5331;48.148;16.326;2023-08-31T12:51:01;25.10;1.00
10566;DHT22;5331;48.148;16.326;2023-08-31T12:53:29;25.20;1.00
10566;DHT22;5331;48.148;16.326;2023-08-31T12:55:56;25.30;1.00
10566;DHT22;5331;48.148;16.326;2023-08-31T12:58:24;25.40;1.00
10566;DHT22;5331;48.148;16.326;2023-08-31T13:00:51;25.50;1.00
10566;DHT22;5331;48.148;16.326;2023-08-31T13:03:19;25.30;1.00
10566;DHT22;5331;48.148;16.326;2023-08-31T13:05:46;25.30;1.00
10566;DHT22;5331;48.148;16.326;2023-08-31T13:08:14;25.40;1.00
10566;DHT22;5331;48.148;16.326;2023-08-31T13:10:41;25.30;1.00
10566;DHT22;5331;48.148;16.326;2023-08-31T13:13:08;25.30;1.00
10566;DHT22;5331;48.148;16.326;2023-08-31T13:15:36;25.10;1.00
10566;DHT22;5331;48.148;16.326;2023-08-31T13:18:04;25.10;1.00
10566;DHT22;5331;48.148;16.326;2023-08-31T13:20:31;25.20;1.00
10566;DHT22;5331;48.148;16.326;2023-08-31T13:22:58;25.40;1.00
10566;DHT22;5331;48.148;16.326;2023-08-31T13:25:24;25.20;1.00
10566;DHT22;5331;48.148;16.326;2023-08-31T13:27:51;25.20;1.00
10566;DHT22;5331;48.148;16.326;2023-08-31T13:30:18;25.20;1.00
10566;DHT22;5331;48.148;16.326;2023-08-31T13:32:46;25.10;1.00
10566;DHT22;5331;48.148;16.326;2023-08-31T13:35:13;25.00;1.00
10566;DHT22;5331;48.148;16.326;2023-08-31T13:37:40;25.00;1.00
10566;DHT22;5331;48.148;16.326;2023-08-31T13:40:08;24.90;1.00
10566;DHT22;5331;48.148;16.326;2023-08-31T13:42:35;25.00;1.00
10566;DHT22;5331;48.148;16.326;2023-08-31T13:45:06;25.00;1.00
10566;DHT22;5331;48.148;16.326;2023-08-31T13:47:35;24.70;1.00
10566;DHT22;5331;48.148;16.326;2023-08-31T13:50:04;24.50;1.00
10566;DHT22;5331;48.148;16.326;2023-08-31T13:52:32;24.40;1.00
10566;DHT22;5331;48.148;16.326;2023-08-31T13:54:59;24.50;1.00
10566;DHT22;5331;48.148;16.326;2023-08-31T13:57:26;24.60;1.00
10566;DHT22;5331;48.148;16.326;2023-08-31T13:59:53;24.60;1.00
10566;DHT22;5331;48.148;16.326;2023-08-31T14:02:20;24.70;1.00
10566;DHT22;5331;48.148;16.326;2023-08-31T14:04:48;24.80;1.00
10566;DHT22;5331;48.148;16.326;2023-08-31T14:07:16;24.80;1.00
10566;DHT22;5331;48.148;16.326;2023-08-31T14:09:43;24.80;1.00
10566;DHT22;5331;48.148;16.326;2023-08-31T14:12:10;24.70;1.00
10566;DHT22;5331;48.148;16.326;2023-08-31T14:14:37;24.70;1.00
10566;DHT22;5331;48.148;16.326;2023-08-31T14:17:05;24.50;1.00
10566;DHT22;5331;48.148;16.326;2023-08-31T14:19:33;24.50;1.00
10566;DHT22;5331;48.148;16.326;2023-08-31T14:22:01;24.40;1.00
10566;DHT22;5331;48.148;16.326;2023-08-31T14:24:30;24.20;1.00
10566;DHT22;5331;48.148;16.326;2023-08-31T14:26:57;24.20;1.00
10566;DHT22;5331;48.148;16.326;2023-08-31T14:29:25;24.00;1.00
10566;DHT22;5331;48.148;16.326;2023-08-31T14:31:52;24.00;1.00
10566;DHT22;5331;48.148;16.326;2023-08-31T14:34:21;24.00;1.00
10566;DHT22;5331;48.148;16.326;2023-08-31T14:36:51;24.10;1.00
10566;DHT22;5331;48.148;16.326;2023-08-31T14:39:23;24.20;1.00
10566;DHT22;5331;48.148;16.326;2023-08-31T14:41:57;24.10;1.00
10566;DHT22;5331;48.148;16.326;2023-08-31T14:44:26;24.00;1.00
10566;DHT22;5331;48.148;16.326;2023-08-31T14:46:56;24.00;1.00
10566;DHT22;5331;48.148;16.326;2023-08-31T14:49:24;23.90;1.00
10566;DHT22;5331;48.148;16.326;2023-08-31T14:51:53;23.80;1.00
10566;DHT22;5331;48.148;16.326;2023-08-31T14:54:21;23.80;1.00
10566;DHT22;5331;48.148;16.326;2023-08-31T14:56:50;23.80;1.00
10566;DHT22;5331;48.148;16.326;2023-08-31T14:59:20;23.80;1.00
10566;DHT22;5331;48.148;16.326;2023-08-31T15:01:48;23.80;1.00
10566;DHT22;5331;48.148;16.326;2023-08-31T15:04:17;23.70;1.00
10566;DHT22;5331;48.148;16.326;2023-08-31T15:06:45;23.80;1.00
10566;DHT22;5331;48.148;16.326;2023-08-31T15:09:15;23.80;1.00
10566;DHT22;5331;48.148;16.326;2023-08-31T15:11:43;23.70;1.00
10566;DHT22;5331;48.148;16.326;2023-08-31T15:14:12;23.50;1.00
10566;DHT22;5331;48.148;16.326;2023-08-31T15:16:42;23.30;1.00
10566;DHT22;5331;48.148;16.326;2023-08-31T15:19:11;23.30;1.00
10566;DHT22;5331;48.148;16.326;2023-08-31T15:21:39;23.30;1.00
10566;DHT22;5331;48.148;16.326;2023-08-31T15:24:08;23.20;1.00
10566;DHT22;5331;48.148;16.326;2023-08-31T15:26:37;23.20;1.00
10566;DHT22;5331;48.148;16.326;2023-08-31T15:29:06;23.10;1.00
10566;DHT22;5331;48.148;16.326;2023-08-31T15:31:36;23.10;1.00
10566;DHT22;5331;48.148;16.326;2023-08-31T15:34:09;23.10;1.00
10566;DHT22;5331;48.148;16.326;2023-08-31T15:36:38;23.20;1.00
10566;DHT22;5331;48.148;16.326;2023-08-31T15:39:07;23.20;1.00
10566;DHT22;5331;48.148;16.326;2023-08-31T15:41:40;23.10;1.00
10566;DHT22;5331;48.148;16.326;2023-08-31T15:44:08;23.10;1.00
10566;DHT22;5331;48.148;16.326;2023-08-31T15:46:37;23.10;1.00
10566;DHT22;5331;48.148;16.326;2023-08-31T15:49:07;23.10;1.00
10566;DHT22;5331;48.148;16.326;2023-08-31T15:51:37;23.10;1.00
10566;DHT22;5331;48.148;16.326;2023-08-31T15:54:06;23.00;1.00
10566;DHT22;5331;48.148;16.326;2023-08-31T15:56:35;23.00;1.00
10566;DHT22;5331;48.148;16.326;2023-08-31T15:59:03;23.10;1.00
10566;DHT22;5331;48.148;16.326;2023-08-31T16:01:32;23.10;1.00